sensor_id;sensor_type;location;lat;lon;timestamp;temperature;humidity
70068;DHT22;57425;51.616;6.680;2023-04-24T00:00:54;14.30;76.70
70068;DHT22;57425;51.616;6.680;2023-04-24T00:03:23;14.30;76.70
70068;DHT22;57425;51.616;6.680;2023-04-24T00:05:48;14.30;76.70
70068;DHT22;57425;51.616;6.680;2023-04-24T00:08:15;14.30;76.80
70068;DHT22;57425;51.616;6.680;2023-04-24T00:10:41;14.30;76.80
70068;DHT22;57425;51.616;6.680;2023-04-24T00:13:07;14.30;76.90
70068;DHT22;57425;51.616;6.680;2023-04-24T00:15:33;14.20;77.40
70068;DHT22;57425;51.616;6.680;2023-04-24T00:17:58;14.20;76.90
70068;DHT22;57425;51.616;6.680;2023-04-24T00:20:24;14.20;76.80
70068;DHT22;57425;51.616;6.680;2023-04-24T00:22:49;14.30;76.80
70068;DHT22;57425;51.616;6.680;2023-04-24T00:25:15;14.20;76.80
70068;DHT22;57425;51.616;6.680;2023-04-24T00:27:41;14.20;76.70
70068;DHT22;57425;51.616;6.680;2023-04-24T00:30:07;14.20;76.70
70068;DHT22;57425;51.616;6.680;2023-04-24T00:32:33;14.20;76.60
70068;DHT22;57425;51.616;6.680;2023-04-24T00:34:58;14.20;76.60
70068;DHT22;57425;51.616;6.680;2023-04-24T00:37:25;14.20;76.50
70068;DHT22;57425;51.616;6.680;2023-04-24T00:39:51;14.20;76.40
70068;DHT22;57425;51.616;6.680;2023-04-24T00:42:16;14.20;76.50
70068;DHT22;57425;51.616;6.680;2023-04-24T00:44:42;14.20;76.80
70068;DHT22;57425;51.616;6.680;2023-04-24T00:47:08;14.20;76.60
70068;DHT22;57425;51.616;6.680;2023-04-24T00:49:34;14.10;76.40
70068;DHT22;57425;51.616;6.680;2023-04-24T00:52:00;14.10;76.30
70068;DHT22;57425;51.616;6.680;2023-04-24T00:54:26;14.10;76.30
70068;DHT22;57425;51.616;6.680;2023-04-24T00:56:51;14.10;76.30
70068;DHT22;57425;51.616;6.680;2023-04-24T00:59:18;14.10;77.00
70068;DHT22;57425;51.616;6.680;2023-04-24T01:01:44;14.10;76.40
70068;DHT22;57425;51.616;6.680;2023-04-24T01:04:12;14.10;76.80
70068;DHT22;57425;51.616;6.680;2023-04-24T01:06:43;14.10;76.20
70068;DHT22;57425;51.616;6.680;2023-04-24T01:09:10;14.00;76.10
70068;DHT22;57425;51.616;6.680;2023-04-24T01:11:37;14.00;76.20
70068;DHT22;57425;51.616;6.680;2023-04-24T01:14:03;14.00;76.20
70068;DHT22;57425;51.616;6.680;2023-04-24T01:16:29;14.00;76.20
70068;DHT22;57425;51.616;6.680;2023-04-24T01:18:55;14.00;76.20
70068;DHT22;57425;51.616;6.680;2023-04-24T01:21:21;14.00;76.20
70068;DHT22;57425;51.616;6.680;2023-04-24T01:23:47;14.00;76.20
70068;DHT22;57425;51.616;6.680;2023-04-24T01:26:17;14.00;76.20
70068;DHT22;57425;51.616;6.680;2023-04-24T01:28:42;14.00;76.00
70068;DHT22;57425;51.616;6.680;2023-04-24T01:31:08;14.00;76.10
70068;DHT22;57425;51.616;6.680;2023-04-24T01:33:34;14.00;76.00
70068;DHT22;57425;51.616;6.680;2023-04-24T01:36:00;13.90;75.90
70068;DHT22;57425;51.616;6.680;2023-04-24T01:38:26;13.90;76.10
70068;DHT22;57425;51.616;6.680;2023-04-24T01:40:53;13.90;76.10
70068;DHT22;57425;51.616;6.680;2023-04-24T01:43:18;13.90;76.10
70068;DHT22;57425;51.616;6.680;2023-04-24T01:45:44;13.90;76.20
70068;DHT22;57425;51.616;6.680;2023-04-24T01:48:12;13.90;76.00
70068;DHT22;57425;51.616;6.680;2023-04-24T01:50:37;13.90;76.00
70068;DHT22;57425;51.616;6.680;2023-04-24T01:53:03;13.90;76.00
70068;DHT22;57425;51.616;6.680;2023-04-24T01:55:29;13.80;75.90
70068;DHT22;57425;51.616;6.680;2023-04-24T01:57:56;13.90;76.10
70068;DHT22;57425;51.616;6.680;2023-04-24T02:00:22;13.90;76.00
70068;DHT22;57425;51.616;6.680;2023-04-24T02:02:49;13.80;76.00
70068;DHT22;57425;51.616;6.680;2023-04-24T02:05:15;13.90;76.00
70068;DHT22;57425;51.616;6.680;2023-04-24T02:07:40;13.80;75.90
70068;DHT22;57425;51.616;6.680;2023-04-24T02:10:06;13.80;75.80
70068;DHT22;57425;51.616;6.680;2023-04-24T02:12:32;13.80;76.00
70068;DHT22;57425;51.616;6.680;2023-04-24T02:14:58;13.80;75.90
70068;DHT22;57425;51.616;6.680;2023-04-24T02:17:25;13.80;75.90
70068;DHT22;57425;51.616;6.680;2023-04-24T02:19:50;13.80;75.80
70068;DHT22;57425;51.616;6.680;2023-04-24T02:22:16;13.80;75.90
70068;DHT22;57425;51.616;6.680;2023-04-24T02:24:41;13.80;75.90
70068;DHT22;57425;51.616;6.680;2023-04-24T02:27:07;13.70;75.90
70068;DHT22;57425;51.616;6.680;2023-04-24T02:29:33;13.70;75.90
70068;DHT22;57425;51.616;6.680;2023-04-24T02:31:58;13.70;76.00
70068;DHT22;57425;51.616;6.680;2023-04-24T02:34:24;13.70;76.10
70068;DHT22;57425;51.616;6.680;2023-04-24T02:36:50;13.70;76.10
70068;DHT22;57425;51.616;6.680;2023-04-24T02:39:16;13.70;76.20
70068;DHT22;57425;51.616;6.680;2023-04-24T02:41:43;13.70;76.70
70068;DHT22;57425;51.616;6.680;2023-04-24T02:44:09;13.70;76.30
70068;DHT22;57425;51.616;6.680;2023-04-24T02:46:35;13.70;76.40
70068;DHT22;57425;51.616;6.680;2023-04-24T02:49:00;13.70;76.40
70068;DHT22;57425;51.616;6.680;2023-04-24T02:51:26;13.70;76.50
70068;DHT22;57425;51.616;6.680;2023-04-24T02:53:52;13.60;76.30
70068;DHT22;57425;51.616;6.680;2023-04-24T02:56:18;13.60;76.20
70068;DHT22;57425;51.616;6.680;2023-04-24T02:58:43;13.60;76.30
70068;DHT22;57425;51.616;6.680;2023-04-24T03:01:09;13.60;76.30
70068;DHT22;57425;51.616;6.680;2023-04-24T03:03:38;13.60;76.40
70068;DHT22;57425;51.616;6.680;2023-04-24T03:06:04;13.60;76.20
70068;DHT22;57425;51.616;6.680;2023-04-24T03:08:31;13.60;76.30
70068;DHT22;57425;51.616;6.680;2023-04-24T03:10:57;13.60;76.30
70068;DHT22;57425;51.616;6.680;2023-04-24T03:13:23;13.50;76.20
70068;DHT22;57425;51.616;6.680;2023-04-24T03:15:49;13.50;76.30
70068;DHT22;57425;51.616;6.680;2023-04-24T03:30:24;13.60;75.40
70068;DHT22;57425;51.616;6.680;2023-04-24T03:32:50;13.60;76.20
70068;DHT22;57425;51.616;6.680;2023-04-24T03:35:16;13.50;76.90
70068;DHT22;57425;51.616;6.680;2023-04-24T03:37:41;13.50;76.40
70068;DHT22;57425;51.616;6.680;2023-04-24T03:40:07;13.50;76.50
70068;DHT22;57425;51.616;6.680;2023-04-24T03:42:34;13.50;76.50
70068;DHT22;57425;51.616;6.680;2023-04-24T03:45:01;13.40;76.50
70068;DHT22;57425;51.616;6.680;2023-04-24T03:47:27;13.40;76.50
70068;DHT22;57425;51.616;6.680;2023-04-24T03:49:52;13.50;76.60
70068;DHT22;57425;51.616;6.680;2023-04-24T03:52:19;13.40;76.60
70068;DHT22;57425;51.616;6.680;2023-04-24T03:54:45;13.40;76.60
70068;DHT22;57425;51.616;6.680;2023-04-24T03:57:10;13.40;76.60
70068;DHT22;57425;51.616;6.680;2023-04-24T03:59:36;13.40;76.60
70068;DHT22;57425;51.616;6.680;2023-04-24T04:02:01;13.40;76.60
70068;DHT22;57425;51.616;6.680;2023-04-24T04:04:27;13.30;76.60
70068;DHT22;57425;51.616;6.680;2023-04-24T04:06:54;13.40;76.70
70068;DHT22;57425;51.616;6.680;2023-04-24T04:09:19;13.40;76.60
70068;DHT22;57425;51.616;6.680;2023-04-24T04:11:45;13.40;76.70
70068;DHT22;57425;51.616;6.680;2023-04-24T04:14:11;13.40;76.70
70068;DHT22;57425;51.616;6.680;2023-04-24T04:16:36;13.30;76.60
70068;DHT22;57425;51.616;6.680;2023-04-24T04:19:02;13.30;76.50
70068;DHT22;57425;51.616;6.680;2023-04-24T04:21:28;13.30;76.50
70068;DHT22;57425;51.616;6.680;2023-04-24T04:23:54;13.30;76.60
70068;DHT22;57425;51.616;6.680;2023-04-24T04:28:47;13.40;99.90
70068;DHT22;57425;51.616;6.680;2023-04-24T04:31:14;13.30;76.60
70068;DHT22;57425;51.616;6.680;2023-04-24T04:33:40;13.30;76.60
70068;DHT22;57425;51.616;6.680;2023-04-24T04:36:05;13.30;76.70
70068;DHT22;57425;51.616;6.680;2023-04-24T04:38:32;13.30;76.70
70068;DHT22;57425;51.616;6.680;2023-04-24T04:43:24;13.40;97.80
70068;DHT22;57425;51.616;6.680;2023-04-24T04:45:51;13.20;76.70
70068;DHT22;57425;51.616;6.680;2023-04-24T04:48:17;13.20;76.60
70068;DHT22;57425;51.616;6.680;2023-04-24T05:05:25;13.20;98.10
70068;DHT22;57425;51.616;6.680;2023-04-24T05:07:50;13.30;76.30
70068;DHT22;57425;51.616;6.680;2023-04-24T05:10:16;13.20;76.50
70068;DHT22;57425;51.616;6.680;2023-04-24T05:12:42;13.20;76.60
70068;DHT22;57425;51.616;6.680;2023-04-24T05:15:07;13.20;76.70
70068;DHT22;57425;51.616;6.680;2023-04-24T05:17:33;13.20;76.80
70068;DHT22;57425;51.616;6.680;2023-04-24T05:19:59;13.10;76.70
70068;DHT22;57425;51.616;6.680;2023-04-24T05:22:25;13.10;76.80
70068;DHT22;57425;51.616;6.680;2023-04-24T05:24:51;13.10;76.80
70068;DHT22;57425;51.616;6.680;2023-04-24T05:27:17;13.10;76.90
70068;DHT22;57425;51.616;6.680;2023-04-24T05:29:42;13.10;76.90
70068;DHT22;57425;51.616;6.680;2023-04-24T05:32:08;13.10;76.90
70068;DHT22;57425;51.616;6.680;2023-04-24T05:34:34;13.10;76.80
70068;DHT22;57425;51.616;6.680;2023-04-24T05:37:00;13.10;76.70
70068;DHT22;57425;51.616;6.680;2023-04-24T05:39:25;13.10;76.80
70068;DHT22;57425;51.616;6.680;2023-04-24T05:41:51;13.10;77.30
70068;DHT22;57425;51.616;6.680;2023-04-24T05:44:17;13.00;76.70
70068;DHT22;57425;51.616;6.680;2023-04-24T05:46:42;13.10;76.70
70068;DHT22;57425;51.616;6.680;2023-04-24T05:49:08;13.00;76.70
70068;DHT22;57425;51.616;6.680;2023-04-24T05:51:33;13.00;76.70
70068;DHT22;57425;51.616;6.680;2023-04-24T05:53:59;13.00;76.70
70068;DHT22;57425;51.616;6.680;2023-04-24T05:56:26;13.00;76.70
70068;DHT22;57425;51.616;6.680;2023-04-24T05:58:51;13.00;76.70
70068;DHT22;57425;51.616;6.680;2023-04-24T06:01:18;13.00;76.80
70068;DHT22;57425;51.616;6.680;2023-04-24T06:03:45;13.00;76.80
70068;DHT22;57425;51.616;6.680;2023-04-24T06:06:10;13.00;76.90
70068;DHT22;57425;51.616;6.680;2023-04-24T06:08:36;13.00;76.90
70068;DHT22;57425;51.616;6.680;2023-04-24T06:11:02;13.00;77.00
70068;DHT22;57425;51.616;6.680;2023-04-24T06:13:27;13.00;77.00
70068;DHT22;57425;51.616;6.680;2023-04-24T06:15:53;13.00;77.10
70068;DHT22;57425;51.616;6.680;2023-04-24T06:18:19;13.00;77.20
70068;DHT22;57425;51.616;6.680;2023-04-24T06:20:45;13.00;77.30
70068;DHT22;57425;51.616;6.680;2023-04-24T06:23:11;13.00;77.30
70068;DHT22;57425;51.616;6.680;2023-04-24T06:25:37;12.90;77.90
70068;DHT22;57425;51.616;6.680;2023-04-24T06:28:03;12.90;77.90
70068;DHT22;57425;51.616;6.680;2023-04-24T06:30:28;13.00;77.50
70068;DHT22;57425;51.616;6.680;2023-04-24T06:32:54;12.90;77.50
70068;DHT22;57425;51.616;6.680;2023-04-24T06:35:20;12.90;77.50
70068;DHT22;57425;51.616;6.680;2023-04-24T06:37:46;12.90;77.50
70068;DHT22;57425;51.616;6.680;2023-04-24T06:40:11;12.90;77.60
70068;DHT22;57425;51.616;6.680;2023-04-24T06:42:37;12.90;77.60
70068;DHT22;57425;51.616;6.680;2023-04-24T06:45:03;12.90;77.60
70068;DHT22;57425;51.616;6.680;2023-04-24T06:47:29;12.90;77.60
70068;DHT22;57425;51.616;6.680;2023-04-24T06:49:55;12.90;77.60
70068;DHT22;57425;51.616;6.680;2023-04-24T06:52:21;12.90;77.60
70068;DHT22;57425;51.616;6.680;2023-04-24T06:54:46;12.90;77.70
70068;DHT22;57425;51.616;6.680;2023-04-24T06:57:12;12.90;77.70
70068;DHT22;57425;51.616;6.680;2023-04-24T06:59:38;12.90;77.70
70068;DHT22;57425;51.616;6.680;2023-04-24T07:02:04;12.80;77.70
70068;DHT22;57425;51.616;6.680;2023-04-24T07:04:30;12.80;77.80
70068;DHT22;57425;51.616;6.680;2023-04-24T07:06:56;12.80;77.80
70068;DHT22;57425;51.616;6.680;2023-04-24T07:09:24;12.90;77.80
70068;DHT22;57425;51.616;6.680;2023-04-24T07:11:51;12.80;77.80
70068;DHT22;57425;51.616;6.680;2023-04-24T07:14:17;12.80;77.80
70068;DHT22;57425;51.616;6.680;2023-04-24T07:16:43;12.80;77.80
70068;DHT22;57425;51.616;6.680;2023-04-24T07:19:09;12.80;77.70
70068;DHT22;57425;51.616;6.680;2023-04-24T07:21:35;12.80;77.70
70068;DHT22;57425;51.616;6.680;2023-04-24T07:24:00;12.80;77.80
70068;DHT22;57425;51.616;6.680;2023-04-24T07:26:28;12.80;77.80
70068;DHT22;57425;51.616;6.680;2023-04-24T07:28:54;12.80;77.90
70068;DHT22;57425;51.616;6.680;2023-04-24T07:31:20;12.80;77.90
70068;DHT22;57425;51.616;6.680;2023-04-24T07:33:46;12.80;77.90
70068;DHT22;57425;51.616;6.680;2023-04-24T07:36:12;12.80;78.00
70068;DHT22;57425;51.616;6.680;2023-04-24T07:38:45;12.80;78.00
70068;DHT22;57425;51.616;6.680;2023-04-24T07:41:12;12.80;77.90
70068;DHT22;57425;51.616;6.680;2023-04-24T07:43:38;12.80;78.10
70068;DHT22;57425;51.616;6.680;2023-04-24T07:46:03;12.80;78.00
70068;DHT22;57425;51.616;6.680;2023-04-24T07:48:29;12.80;78.10
70068;DHT22;57425;51.616;6.680;2023-04-24T07:50:55;12.70;78.10
70068;DHT22;57425;51.616;6.680;2023-04-24T07:53:20;12.80;78.10
70068;DHT22;57425;51.616;6.680;2023-04-24T07:55:46;12.70;78.10
70068;DHT22;57425;51.616;6.680;2023-04-24T07:58:12;12.70;78.10
70068;DHT22;57425;51.616;6.680;2023-04-24T08:00:38;12.70;78.10
70068;DHT22;57425;51.616;6.680;2023-04-24T08:03:04;12.70;78.10
70068;DHT22;57425;51.616;6.680;2023-04-24T08:05:30;12.70;78.10
70068;DHT22;57425;51.616;6.680;2023-04-24T08:07:55;12.70;78.10
70068;DHT22;57425;51.616;6.680;2023-04-24T08:10:25;12.70;78.20
70068;DHT22;57425;51.616;6.680;2023-04-24T08:12:51;12.70;78.30
70068;DHT22;57425;51.616;6.680;2023-04-24T08:15:17;12.70;78.40
70068;DHT22;57425;51.616;6.680;2023-04-24T08:17:43;12.70;78.40
70068;DHT22;57425;51.616;6.680;2023-04-24T08:20:10;12.70;78.40
70068;DHT22;57425;51.616;6.680;2023-04-24T08:22:39;12.70;78.40
70068;DHT22;57425;51.616;6.680;2023-04-24T08:25:06;12.70;78.40
70068;DHT22;57425;51.616;6.680;2023-04-24T08:27:32;12.70;78.50
70068;DHT22;57425;51.616;6.680;2023-04-24T08:29:58;12.70;78.60
70068;DHT22;57425;51.616;6.680;2023-04-24T08:32:26;12.70;78.70
70068;DHT22;57425;51.616;6.680;2023-04-24T08:34:56;12.70;78.70
70068;DHT22;57425;51.616;6.680;2023-04-24T08:37:23;12.70;78.80
70068;DHT22;57425;51.616;6.680;2023-04-24T08:39:52;12.70;78.90
70068;DHT22;57425;51.616;6.680;2023-04-24T08:42:18;12.70;79.00
70068;DHT22;57425;51.616;6.680;2023-04-24T08:44:44;12.70;79.10
70068;DHT22;57425;51.616;6.680;2023-04-24T08:47:11;12.70;79.20
70068;DHT22;57425;51.616;6.680;2023-04-24T08:49:38;12.70;79.20
70068;DHT22;57425;51.616;6.680;2023-04-24T08:52:05;12.70;79.20
70068;DHT22;57425;51.616;6.680;2023-04-24T08:54:33;12.70;79.20
70068;DHT22;57425;51.616;6.680;2023-04-24T08:57:00;12.70;79.90
70068;DHT22;57425;51.616;6.680;2023-04-24T08:59:30;12.70;79.40
70068;DHT22;57425;51.616;6.680;2023-04-24T09:01:56;12.70;79.40
70068;DHT22;57425;51.616;6.680;2023-04-24T09:04:23;12.70;79.50
70068;DHT22;57425;51.616;6.680;2023-04-24T09:06:56;12.70;79.50
70068;DHT22;57425;51.616;6.680;2023-04-24T09:09:23;12.70;79.60
70068;DHT22;57425;51.616;6.680;2023-04-24T09:11:52;12.70;79.40
70068;DHT22;57425;51.616;6.680;2023-04-24T09:14:20;12.70;79.40
70068;DHT22;57425;51.616;6.680;2023-04-24T09:16:46;12.70;79.30
70068;DHT22;57425;51.616;6.680;2023-04-24T09:19:12;12.70;79.20
70068;DHT22;57425;51.616;6.680;2023-04-24T09:21:38;12.70;78.90
70068;DHT22;57425;51.616;6.680;2023-04-24T09:24:06;12.70;78.70
70068;DHT22;57425;51.616;6.680;2023-04-24T09:26:35;12.60;78.70
70068;DHT22;57425;51.616;6.680;2023-04-24T09:29:01;12.60;79.40
70068;DHT22;57425;51.616;6.680;2023-04-24T09:31:28;12.60;79.00
70068;DHT22;57425;51.616;6.680;2023-04-24T09:36:54;12.60;79.20
70068;DHT22;57425;51.616;6.680;2023-04-24T09:39:20;12.60;78.90
70068;DHT22;57425;51.616;6.680;2023-04-24T09:41:50;12.60;79.00
70068;DHT22;57425;51.616;6.680;2023-04-24T09:46:44;12.60;79.10
70068;DHT22;57425;51.616;6.680;2023-04-24T09:49:13;12.50;78.80
70068;DHT22;57425;51.616;6.680;2023-04-24T09:56:48;12.60;78.20
70068;DHT22;57425;51.616;6.680;2023-04-24T09:59:15;12.50;79.10
70068;DHT22;57425;51.616;6.680;2023-04-24T10:01:41;12.50;79.30
70068;DHT22;57425;51.616;6.680;2023-04-24T10:04:18;12.50;79.50
70068;DHT22;57425;51.616;6.680;2023-04-24T10:06:45;12.50;80.00
70068;DHT22;57425;51.616;6.680;2023-04-24T10:09:12;12.50;79.70
70068;DHT22;57425;51.616;6.680;2023-04-24T10:11:41;12.50;79.70
70068;DHT22;57425;51.616;6.680;2023-04-24T10:14:09;12.50;79.80
70068;DHT22;57425;51.616;6.680;2023-04-24T10:16:36;12.50;79.70
70068;DHT22;57425;51.616;6.680;2023-04-24T10:19:03;12.50;79.90
70068;DHT22;57425;51.616;6.680;2023-04-24T10:21:29;12.50;79.80
70068;DHT22;57425;51.616;6.680;2023-04-24T10:23:55;12.50;79.70
70068;DHT22;57425;51.616;6.680;2023-04-24T10:26:22;12.50;79.70
70068;DHT22;57425;51.616;6.680;2023-04-24T10:28:48;12.50;79.70
70068;DHT22;57425;51.616;6.680;2023-04-24T10:31:14;12.50;79.70
70068;DHT22;57425;51.616;6.680;2023-04-24T10:33:42;12.50;79.80
70068;DHT22;57425;51.616;6.680;2023-04-24T10:36:12;12.50;80.40
70068;DHT22;57425;51.616;6.680;2023-04-24T10:38:40;12.50;80.00
70068;DHT22;57425;51.616;6.680;2023-04-24T10:41:11;12.50;80.00
70068;DHT22;57425;51.616;6.680;2023-04-24T10:43:45;12.50;80.00
70068;DHT22;57425;51.616;6.680;2023-04-24T10:46:19;12.50;80.00
70068;DHT22;57425;51.616;6.680;2023-04-24T10:48:55;12.50;80.50
70068;DHT22;57425;51.616;6.680;2023-04-24T10:51:25;12.50;80.10
70068;DHT22;57425;51.616;6.680;2023-04-24T11:17:42;12.50;79.20
70068;DHT22;57425;51.616;6.680;2023-04-24T11:20:10;12.50;79.30
70068;DHT22;57425;51.616;6.680;2023-04-24T11:22:38;12.50;79.50
70068;DHT22;57425;51.616;6.680;2023-04-24T11:25:06;12.50;79.50
70068;DHT22;57425;51.616;6.680;2023-04-24T11:27:43;12.40;79.40
70068;DHT22;57425;51.616;6.680;2023-04-24T11:30:09;12.50;79.50
70068;DHT22;57425;51.616;6.680;2023-04-24T11:32:42;12.50;79.50
70068;DHT22;57425;51.616;6.680;2023-04-24T11:35:14;12.50;79.30
70068;DHT22;57425;51.616;6.680;2023-04-24T11:37:45;12.50;79.20
70068;DHT22;57425;51.616;6.680;2023-04-24T11:40:18;12.50;79.20
70068;DHT22;57425;51.616;6.680;2023-04-24T11:42:52;12.50;79.20
70068;DHT22;57425;51.616;6.680;2023-04-24T11:45:20;12.50;79.80
70068;DHT22;57425;51.616;6.680;2023-04-24T11:47:46;12.50;79.30
70068;DHT22;57425;51.616;6.680;2023-04-24T11:50:14;12.60;79.20
70068;DHT22;57425;51.616;6.680;2023-04-24T11:52:42;12.60;79.10
70068;DHT22;57425;51.616;6.680;2023-04-24T11:57:43;12.60;78.80
70068;DHT22;57425;51.616;6.680;2023-04-24T12:00:28;12.60;78.80
70068;DHT22;57425;51.616;6.680;2023-04-24T12:03:10;12.60;78.70
70068;DHT22;57425;51.616;6.680;2023-04-24T12:05:37;12.60;78.60
70068;DHT22;57425;51.616;6.680;2023-04-24T12:08:03;12.60;78.80
70068;DHT22;57425;51.616;6.680;2023-04-24T12:10:31;12.60;78.70
70068;DHT22;57425;51.616;6.680;2023-04-24T12:12:58;12.60;79.10
70068;DHT22;57425;51.616;6.680;2023-04-24T12:15:25;12.60;78.60
70068;DHT22;57425;51.616;6.680;2023-04-24T12:17:52;12.60;78.60
70068;DHT22;57425;51.616;6.680;2023-04-24T12:20:24;12.60;78.50
70068;DHT22;57425;51.616;6.680;2023-04-24T12:22:55;12.60;78.40
70068;DHT22;57425;51.616;6.680;2023-04-24T12:25:23;12.60;78.40
70068;DHT22;57425;51.616;6.680;2023-04-24T12:27:54;12.60;78.90
70068;DHT22;57425;51.616;6.680;2023-04-24T12:30:20;12.70;78.40
70068;DHT22;57425;51.616;6.680;2023-04-24T12:32:49;12.70;78.30
70068;DHT22;57425;51.616;6.680;2023-04-24T12:35:22;12.60;77.80
70068;DHT22;57425;51.616;6.680;2023-04-24T12:37:49;12.70;77.80
70068;DHT22;57425;51.616;6.680;2023-04-24T12:40:17;12.70;78.00
70068;DHT22;57425;51.616;6.680;2023-04-24T12:42:48;12.70;78.20
70068;DHT22;57425;51.616;6.680;2023-04-24T12:45:14;12.70;78.00
70068;DHT22;57425;51.616;6.680;2023-04-24T12:47:41;12.70;78.00
70068;DHT22;57425;51.616;6.680;2023-04-24T12:50:09;12.70;77.90
70068;DHT22;57425;51.616;6.680;2023-04-24T12:52:36;12.70;77.90
70068;DHT22;57425;51.616;6.680;2023-04-24T12:55:02;12.60;78.40
70068;DHT22;57425;51.616;6.680;2023-04-24T12:57:29;12.70;77.70
70068;DHT22;57425;51.616;6.680;2023-04-24T12:59:56;12.70;77.70
70068;DHT22;57425;51.616;6.680;2023-04-24T13:02:27;12.70;77.80
70068;DHT22;57425;51.616;6.680;2023-04-24T13:04:52;12.70;77.50
70068;DHT22;57425;51.616;6.680;2023-04-24T13:07:19;12.70;77.70
70068;DHT22;57425;51.616;6.680;2023-04-24T13:09:47;12.70;77.50
70068;DHT22;57425;51.616;6.680;2023-04-24T13:12:14;12.70;77.40
70068;DHT22;57425;51.616;6.680;2023-04-24T13:14:40;12.70;77.20
70068;DHT22;57425;51.616;6.680;2023-04-24T13:17:05;12.70;77.10
70068;DHT22;57425;51.616;6.680;2023-04-24T13:19:37;12.70;77.10
70068;DHT22;57425;51.616;6.680;2023-04-24T13:22:03;12.70;77.20
70068;DHT22;57425;51.616;6.680;2023-04-24T13:24:29;12.70;77.40
70068;DHT22;57425;51.616;6.680;2023-04-24T13:26:56;12.70;77.40
70068;DHT22;57425;51.616;6.680;2023-04-24T13:29:22;12.70;77.40
70068;DHT22;57425;51.616;6.680;2023-04-24T13:31:50;12.70;78.00
70068;DHT22;57425;51.616;6.680;2023-04-24T13:34:17;12.70;77.50
70068;DHT22;57425;51.616;6.680;2023-04-24T13:36:43;12.70;77.70
70068;DHT22;57425;51.616;6.680;2023-04-24T13:39:09;12.70;77.40
70068;DHT22;57425;51.616;6.680;2023-04-24T13:41:35;12.70;77.10
70068;DHT22;57425;51.616;6.680;2023-04-24T13:44:03;12.70;77.10
70068;DHT22;57425;51.616;6.680;2023-04-24T13:46:29;12.70;76.90
70068;DHT22;57425;51.616;6.680;2023-04-24T13:48:54;12.70;76.50
70068;DHT22;57425;51.616;6.680;2023-04-24T13:51:20;12.80;76.50
70068;DHT22;57425;51.616;6.680;2023-04-24T13:53:46;12.70;76.70
70068;DHT22;57425;51.616;6.680;2023-04-24T13:56:11;12.70;76.90
70068;DHT22;57425;51.616;6.680;2023-04-24T13:58:39;12.80;76.90
70068;DHT22;57425;51.616;6.680;2023-04-24T14:01:05;12.70;77.00
70068;DHT22;57425;51.616;6.680;2023-04-24T14:03:30;12.80;77.00
70068;DHT22;57425;51.616;6.680;2023-04-24T14:05:56;12.70;77.10
70068;DHT22;57425;51.616;6.680;2023-04-24T14:08:22;12.70;77.20
70068;DHT22;57425;51.616;6.680;2023-04-24T14:10:48;12.80;77.30
70068;DHT22;57425;51.616;6.680;2023-04-24T14:13:14;12.80;77.40
70068;DHT22;57425;51.616;6.680;2023-04-24T14:15:40;12.70;77.50
70068;DHT22;57425;51.616;6.680;2023-04-24T14:18:05;12.70;77.60
70068;DHT22;57425;51.616;6.680;2023-04-24T14:20:31;12.70;77.80
70068;DHT22;57425;51.616;6.680;2023-04-24T14:22:57;12.80;78.00
70068;DHT22;57425;51.616;6.680;2023-04-24T14:25:26;12.70;78.20
70068;DHT22;57425;51.616;6.680;2023-04-24T14:27:52;12.80;78.90
70068;DHT22;57425;51.616;6.680;2023-04-24T14:30:18;12.80;78.40
70068;DHT22;57425;51.616;6.680;2023-04-24T14:32:44;12.80;78.40
70068;DHT22;57425;51.616;6.680;2023-04-24T14:35:10;12.80;78.50
70068;DHT22;57425;51.616;6.680;2023-04-24T14:37:36;12.80;78.50
70068;DHT22;57425;51.616;6.680;2023-04-24T14:40:02;12.70;78.50
70068;DHT22;57425;51.616;6.680;2023-04-24T14:42:29;12.80;78.40
70068;DHT22;57425;51.616;6.680;2023-04-24T14:44:55;12.80;78.40
70068;DHT22;57425;51.616;6.680;2023-04-24T14:47:20;12.80;78.50
70068;DHT22;57425;51.616;6.680;2023-04-24T14:49:48;12.80;78.50
70068;DHT22;57425;51.616;6.680;2023-04-24T14:52:13;12.80;78.80
70068;DHT22;57425;51.616;6.680;2023-04-24T14:54:39;12.80;78.20
70068;DHT22;57425;51.616;6.680;2023-04-24T14:57:05;12.80;78.10
70068;DHT22;57425;51.616;6.680;2023-04-24T14:59:31;12.80;77.70
70068;DHT22;57425;51.616;6.680;2023-04-24T15:01:57;12.80;77.60
70068;DHT22;57425;51.616;6.680;2023-04-24T15:04:26;12.80;77.40
70068;DHT22;57425;51.616;6.680;2023-04-24T15:06:53;12.90;77.60
70068;DHT22;57425;51.616;6.680;2023-04-24T15:09:20;12.80;77.50
70068;DHT22;57425;51.616;6.680;2023-04-24T15:11:47;12.80;77.30
70068;DHT22;57425;51.616;6.680;2023-04-24T15:14:13;12.80;77.20
70068;DHT22;57425;51.616;6.680;2023-04-24T15:16:38;12.90;77.00
70068;DHT22;57425;51.616;6.680;2023-04-24T15:19:04;12.90;77.20
70068;DHT22;57425;51.616;6.680;2023-04-24T15:21:30;12.80;77.20
70068;DHT22;57425;51.616;6.680;2023-04-24T15:23:56;12.80;77.50
70068;DHT22;57425;51.616;6.680;2023-04-24T15:26:23;12.80;77.30
70068;DHT22;57425;51.616;6.680;2023-04-24T15:28:49;12.80;76.90
70068;DHT22;57425;51.616;6.680;2023-04-24T15:31:14;12.80;77.00
70068;DHT22;57425;51.616;6.680;2023-04-24T15:33:40;12.80;76.10
70068;DHT22;57425;51.616;6.680;2023-04-24T15:36:06;12.90;76.10
70068;DHT22;57425;51.616;6.680;2023-04-24T15:38:32;12.90;75.90
70068;DHT22;57425;51.616;6.680;2023-04-24T15:40:57;12.90;75.90
70068;DHT22;57425;51.616;6.680;2023-04-24T15:43:23;12.80;76.60
70068;DHT22;57425;51.616;6.680;2023-04-24T15:45:49;12.80;75.90
70068;DHT22;57425;51.616;6.680;2023-04-24T15:48:15;12.90;75.80
70068;DHT22;57425;51.616;6.680;2023-04-24T15:50:41;12.90;75.70
70068;DHT22;57425;51.616;6.680;2023-04-24T15:53:07;12.90;76.00
70068;DHT22;57425;51.616;6.680;2023-04-24T15:55:33;12.90;76.20
70068;DHT22;57425;51.616;6.680;2023-04-24T15:58:01;12.90;76.30
70068;DHT22;57425;51.616;6.680;2023-04-24T16:00:27;12.90;76.30
70068;DHT22;57425;51.616;6.680;2023-04-24T16:03:01;12.90;75.50
70068;DHT22;57425;51.616;6.680;2023-04-24T16:05:27;12.90;75.40
70068;DHT22;57425;51.616;6.680;2023-04-24T16:07:53;12.90;75.40
70068;DHT22;57425;51.616;6.680;2023-04-24T16:10:19;12.90;75.10
70068;DHT22;57425;51.616;6.680;2023-04-24T16:12:44;12.90;75.00
70068;DHT22;57425;51.616;6.680;2023-04-24T16:15:10;12.90;75.00
70068;DHT22;57425;51.616;6.680;2023-04-24T16:17:36;12.90;74.30
70068;DHT22;57425;51.616;6.680;2023-04-24T16:20:05;12.90;74.30
70068;DHT22;57425;51.616;6.680;2023-04-24T16:22:32;12.90;74.00
70068;DHT22;57425;51.616;6.680;2023-04-24T16:24:57;12.90;74.20
70068;DHT22;57425;51.616;6.680;2023-04-24T16:27:24;13.00;74.30
70068;DHT22;57425;51.616;6.680;2023-04-24T16:29:51;12.90;74.30
70068;DHT22;57425;51.616;6.680;2023-04-24T16:32:17;12.90;74.00
70068;DHT22;57425;51.616;6.680;2023-04-24T16:34:42;12.90;74.00